Time;durP1;ratioP1;P1;durP2;ratioP2;P2;SDS_P1;SDS_P2;PMS_P1;PMS_P2;Temp;Humidity;BMP_temperature;BMP_pressure;BME280_temperature;BME280_humidity;BME280_pressure;Samples;Min_cycle;Max_cycle;Signal;HPM_P1;HPM_P2
2023/06/24 00:01:12;;;;;;;12.00;10.90;;;19.40;99.90;;;;;;5054859;28;20426;-51
2023/06/24 00:03:39;;;;;;;12.20;11.20;;;19.00;99.90;;;;;;5053050;28;20486;-51
2023/06/24 00:06:06;;;;;;;13.30;12.00;;;19.00;99.90;;;;;;5052811;28;20895;-50
2023/06/24 00:08:34;;;;;;;14.90;13.37;;;19.40;99.90;;;;;;5052543;28;20450;-50
2023/06/24 00:11:02;;;;;;;16.80;13.90;;;18.90;99.90;;;;;;5052360;28;20430;-51
2023/06/24 00:13:29;;;;;;;15.40;13.90;;;18.90;99.90;;;;;;5052297;28;20494;-51
2023/06/24 00:15:56;;;;;;;14.90;13.50;;;19.50;99.90;;;;;;5052413;28;20457;-51
2023/06/24 00:18:29;;;;;;;15.40;14.10;;;18.90;99.90;;;;;;5051912;28;20442;-50
2023/06/24 00:20:55;;;;;;;20.43;18.63;;;18.80;99.90;;;;;;5052427;28;20771;-49
2023/06/24 00:23:24;;;;;;;15.43;14.00;;;18.90;99.90;;;;;;5052117;28;20474;-50
2023/06/24 00:25:51;;;;;;;18.50;14.17;;;19.00;99.90;;;;;;5052126;28;20709;-50
2023/06/24 00:28:17;;;;;;;15.23;13.67;;;18.80;99.90;;;;;;5051867;28;20445;-49
2023/06/24 00:30:44;;;;;;;15.07;13.47;;;18.80;99.90;;;;;;5034232;28;20464;-51
2023/06/24 00:33:13;;;;;;;16.70;14.93;;;18.60;99.90;;;;;;5051861;28;20465;-51
2023/06/24 00:35:41;;;;;;;16.40;14.73;;;18.70;99.90;;;;;;5052238;28;20426;-50
2023/06/24 00:38:08;;;;;;;17.40;15.67;;;18.40;99.90;;;;;;5051672;28;20439;-51
2023/06/24 00:40:35;;;;;;;17.40;15.63;;;18.60;99.90;;;;;;5034184;28;20883;-50
2023/06/24 00:43:02;;;;;;;17.73;15.80;;;18.60;99.90;;;;;;5051733;28;20449;-51
2023/06/24 00:45:30;;;;;;;17.83;16.10;;;18.70;99.90;;;;;;5034084;28;20541;-50
2023/06/24 00:47:58;;;;;;;18.33;16.43;;;18.50;99.90;;;;;;5051821;28;20499;-51
2023/06/24 00:50:26;;;;;;;23.80;19.20;;;18.50;99.90;;;;;;5051483;28;20430;-51
2023/06/24 00:52:55;;;;;;;18.13;16.07;;;18.50;99.90;;;;;;5051742;28;20474;-50
2023/06/24 00:55:22;;;;;;;21.40;17.70;;;18.40;99.90;;;;;;5034122;28;20453;-50
2023/06/24 00:57:52;;;;;;;16.67;14.97;;;18.10;99.90;;;;;;5051713;28;20460;-49
2023/06/24 01:00:20;;;;;;;19.90;17.93;;;18.40;99.90;;;;;;5051507;28;20438;-51
2023/06/24 01:02:48;;;;;;;21.80;18.93;;;18.30;99.90;;;;;;5051634;28;20549;-50
2023/06/24 01:05:15;;;;;;;21.70;19.40;;;18.70;99.90;;;;;;5051639;28;20481;-49
2023/06/24 01:07:42;;;;;;;21.00;16.30;;;18.30;99.90;;;;;;5051750;28;20437;-51
2023/06/24 01:10:12;;;;;;;19.00;17.30;;;18.50;99.90;;;;;;5033433;28;20450;-51
2023/06/24 01:12:41;;;;;;;21.20;19.20;;;18.30;99.90;;;;;;5051441;28;20481;-52
2023/06/24 01:15:10;;;;;;;21.43;18.50;;;18.60;99.90;;;;;;5051796;28;20427;-51
2023/06/24 01:17:43;;;;;;;21.07;19.07;;;18.20;99.90;;;;;;5033937;28;20540;-52
2023/06/24 01:20:19;;;;;;;30.40;26.63;;;18.20;99.90;;;;;;5051288;28;20438;-50
2023/06/24 01:23:10;;;;;;;21.93;19.63;;;18.20;99.90;;;;;;5051685;28;20459;-50
2023/06/24 01:25:55;;;;;;;21.37;19.27;;;18.20;99.90;;;;;;5033824;28;20464;-50
2023/06/24 01:28:38;;;;;;;22.80;20.57;;;18.00;99.90;;;;;;5033257;28;20432;-50
2023/06/24 01:31:34;;;;;;;21.47;18.97;;;18.10;99.90;;;;;;5033872;28;20458;-50
2023/06/24 01:34:07;;;;;;;19.63;17.77;;;18.10;99.90;;;;;;5074784;23;20507;-47
2023/06/24 01:36:36;;;;;;;20.00;17.90;;;18.10;99.90;;;;;;5071677;28;20446;-46
2023/06/24 01:39:06;;;;;;;19.87;17.97;;;18.00;99.90;;;;;;5071367;28;20953;-46
2023/06/24 01:41:36;;;;;;;18.13;16.43;;;18.10;99.90;;;;;;5071353;28;20540;-48
2023/06/24 01:44:05;;;;;;;20.10;17.53;;;17.90;99.90;;;;;;5053401;28;20476;-48
2023/06/24 01:46:33;;;;;;;18.90;17.03;;;18.00;99.90;;;;;;5073199;28;20433;-46
2023/06/24 01:49:03;;;;;;;18.30;16.50;;;17.90;99.90;;;;;;5074404;28;20437;-48
2023/06/24 01:51:33;;;;;;;19.57;17.00;;;17.90;99.90;;;;;;5056929;28;20452;-48
2023/06/24 01:54:03;;;;;;;19.33;17.53;;;17.60;99.90;;;;;;5056710;28;20492;-46
2023/06/24 01:56:33;;;;;;;18.80;16.87;;;17.90;99.90;;;;;;5074620;28;20956;-48
2023/06/24 01:59:03;;;;;;;20.17;18.17;;;18.10;99.90;;;;;;5056439;28;20561;-46
2023/06/24 02:01:32;;;;;;;21.63;19.30;;;17.90;99.90;;;;;;5056893;28;20445;-47
2023/06/24 02:04:01;;;;;;;17.50;15.53;;;17.80;99.90;;;;;;5057068;28;21046;-46
2023/06/24 02:06:29;;;;;;;18.40;16.60;;;17.80;99.90;;;;;;5056664;28;20452;-47
2023/06/24 02:08:59;;;;;;;19.40;17.40;;;17.80;99.90;;;;;;5056118;28;20463;-47
2023/06/24 02:11:29;;;;;;;16.47;14.90;;;17.60;99.90;;;;;;5074581;28;20430;-47
2023/06/24 02:13:57;;;;;;;20.80;18.60;;;17.80;99.90;;;;;;5074398;28;20456;-46
2023/06/24 02:16:25;;;;;;;17.40;15.53;;;17.90;99.90;;;;;;5056442;28;20448;-46
2023/06/24 02:18:54;;;;;;;18.67;15.47;;;17.80;99.90;;;;;;5056241;28;20460;-46
2023/06/24 02:21:22;;;;;;;18.43;16.53;;;17.90;99.90;;;;;;5074473;28;20433;-47
2023/06/24 02:23:49;;;;;;;17.60;16.00;;;17.30;99.90;;;;;;5074497;28;20488;-46
2023/06/24 02:26:17;;;;;;;18.13;16.33;;;17.50;99.90;;;;;;5074766;28;20432;-47
2023/06/24 02:28:46;;;;;;;16.77;15.13;;;17.30;99.90;;;;;;5056860;28;20441;-46
2023/06/24 02:31:13;;;;;;;19.03;17.10;;;17.80;99.90;;;;;;5056945;28;20452;-48
2023/06/24 02:33:40;;;;;;;18.23;16.43;;;17.80;99.90;;;;;;5075024;28;21019;-47
2023/06/24 02:36:10;;;;;;;16.90;14.47;;;17.80;99.90;;;;;;5057057;28;20453;-47
2023/06/24 02:38:37;;;;;;;19.03;15.30;;;17.70;99.90;;;;;;5074801;28;20445;-44
2023/06/24 02:41:04;;;;;;;17.60;15.83;;;17.80;99.90;;;;;;5056144;28;20948;-46
2023/06/24 02:43:31;;;;;;;18.03;16.23;;;17.80;99.90;;;;;;5055815;28;20493;-47
2023/06/24 02:46:01;;;;;;;16.20;14.67;;;17.70;99.90;;;;;;5055959;28;20449;-47
2023/06/24 02:48:30;;;;;;;16.50;15.00;;;17.70;99.90;;;;;;5055847;28;20461;-46
2023/06/24 02:50:59;;;;;;;17.30;14.90;;;17.60;99.90;;;;;;5055841;28;20543;-48
2023/06/24 02:53:27;;;;;;;18.30;15.70;;;17.60;99.90;;;;;;5055605;28;20472;-47
2023/06/24 02:55:56;;;;;;;19.13;15.73;;;17.60;99.90;;;;;;5055673;28;20522;-48
2023/06/24 02:58:23;;;;;;;15.60;14.20;;;17.70;99.90;;;;;;5073307;28;20607;-46
2023/06/24 03:01:03;;;;;;;17.33;15.53;;;17.10;99.90;;;;;;5055410;28;20444;-47
2023/06/24 03:03:49;;;;;;;23.93;21.23;;;17.60;99.90;;;;;;5055626;28;20468;-47
2023/06/24 03:06:18;;;;;;;16.70;15.00;;;17.30;99.90;;;;;;5055381;28;20939;-47
2023/06/24 03:08:46;;;;;;;21.00;15.40;;;17.50;99.90;;;;;;5055184;28;20510;-46
2023/06/24 03:11:14;;;;;;;14.77;13.27;;;17.60;99.90;;;;;;5055233;28;20826;-48
2023/06/24 03:13:42;;;;;;;20.50;14.30;;;17.60;99.90;;;;;;5055299;28;20468;-49
2023/06/24 03:16:31;;;;;;;16.53;15.00;;;17.60;99.90;;;;;;5072393;28;20506;-46
2023/06/24 03:19:17;;;;;;;16.83;15.17;;;17.30;99.90;;;;;;5055339;28;20453;-47
2023/06/24 03:21:45;;;;;;;18.77;13.57;;;17.60;99.90;;;;;;5055173;28;20448;-46
2023/06/24 03:24:14;;;;;;;14.50;13.00;;;17.40;99.90;;;;;;5054941;28;20854;-47
2023/06/24 03:26:44;;;;;;;13.37;12.13;;;17.60;99.90;;;;;;5055037;28;20448;-47
2023/06/24 03:29:13;;;;;;;14.47;12.13;;;17.60;99.90;;;;;;5054614;28;20827;-48
2023/06/24 03:31:48;;;;;;;16.17;14.47;;;17.60;99.90;;;;;;5054719;28;20454;-47
2023/06/24 03:34:19;;;;;;;15.03;13.63;;;17.30;99.90;;;;;;5055195;28;20810;-48
2023/06/24 03:36:46;;;;;;;14.77;13.27;;;17.90;99.90;;;;;;5054689;28;20454;-47
2023/06/24 03:39:16;;;;;;;13.57;12.13;;;17.70;99.90;;;;;;5054489;28;20444;-46
2023/06/24 03:41:43;;;;;;;14.00;12.77;;;17.70;99.90;;;;;;5054436;28;20542;-47
2023/06/24 03:44:12;;;;;;;14.97;13.20;;;17.80;99.90;;;;;;5054532;28;21079;-46
2023/06/24 03:46:38;;;;;;;14.40;12.97;;;17.70;99.90;;;;;;5054492;28;20501;-47
2023/06/24 03:49:06;;;;;;;15.03;12.70;;;17.70;99.90;;;;;;5054218;28;20485;-46
2023/06/24 03:51:33;;;;;;;14.10;12.60;;;17.90;99.90;;;;;;5054636;28;20453;-47
2023/06/24 03:53:59;;;;;;;13.27;12.07;;;17.90;99.90;;;;;;5054501;28;20479;-47
2023/06/24 03:56:29;;;;;;;15.50;13.93;;;17.70;99.90;;;;;;5054468;28;20481;-46
2023/06/24 03:58:55;;;;;;;16.43;13.90;;;17.80;99.90;;;;;;5054018;28;20498;-46
2023/06/24 04:01:23;;;;;;;13.43;12.10;;;17.70;99.90;;;;;;5054373;28;20452;-46
2023/06/24 04:03:50;;;;;;;15.23;13.63;;;17.60;99.90;;;;;;5072220;28;20467;-47
2023/06/24 04:06:17;;;;;;;12.80;11.50;;;17.90;99.90;;;;;;5072303;28;20432;-46
2023/06/24 04:08:43;;;;;;;14.93;13.47;;;17.80;99.90;;;;;;5053324;28;20460;-47
2023/06/24 04:11:11;;;;;;;14.40;13.20;;;18.00;99.90;;;;;;5054190;28;20445;-47
2023/06/24 04:13:39;;;;;;;14.43;12.93;;;18.10;99.90;;;;;;5072016;28;20467;-47
2023/06/24 04:16:06;;;;;;;13.70;12.27;;;18.10;99.90;;;;;;5054110;28;20445;-47
2023/06/24 04:18:37;;;;;;;14.27;12.97;;;18.10;99.90;;;;;;5053939;28;20452;-47
2023/06/24 04:21:03;;;;;;;14.13;12.73;;;17.70;99.90;;;;;;5054304;28;20453;-46
2023/06/24 04:23:30;;;;;;;14.13;11.97;;;18.00;99.90;;;;;;5072359;28;20465;-47
2023/06/24 04:25:57;;;;;;;14.90;13.03;;;18.20;99.90;;;;;;5053870;28;20502;-46
2023/06/24 04:28:23;;;;;;;14.30;12.90;;;17.60;99.90;;;;;;5053527;28;20559;-46
2023/06/24 04:30:52;;;;;;;15.87;12.90;;;18.00;99.90;;;;;;5054131;28;20449;-46
2023/06/24 04:33:19;;;;;;;13.70;12.13;;;18.00;99.90;;;;;;5053818;28;20931;-46
2023/06/24 04:35:46;;;;;;;14.10;12.23;;;18.10;99.90;;;;;;5057724;28;20968;-46
2023/06/24 04:38:17;;;;;;;14.90;13.17;;;18.30;99.90;;;;;;5053869;28;20539;-46
2023/06/24 04:40:44;;;;;;;12.23;10.93;;;18.20;99.90;;;;;;5053833;28;20746;-47
2023/06/24 04:43:11;;;;;;;13.77;12.30;;;18.50;99.90;;;;;;5071808;28;20449;-47
2023/06/24 04:45:38;;;;;;;14.07;11.10;;;18.60;99.90;;;;;;5071591;28;20558;-47
2023/06/24 04:48:06;;;;;;;13.83;11.97;;;18.60;99.90;;;;;;5071343;28;20436;-47
2023/06/24 04:50:33;;;;;;;15.93;12.40;;;18.60;99.90;;;;;;5071819;28;20430;-47
2023/06/24 04:53:01;;;;;;;13.47;10.60;;;18.70;99.90;;;;;;5071531;28;20458;-47
2023/06/24 04:55:29;;;;;;;12.50;11.13;;;18.80;99.90;;;;;;5071848;28;20946;-47
2023/06/24 04:57:56;;;;;;;13.23;11.90;;;18.90;99.90;;;;;;5071658;28;20971;-48
2023/06/24 05:00:24;;;;;;;12.33;10.73;;;19.10;99.90;;;;;;5071345;28;20411;-46
2023/06/24 05:02:51;;;;;;;13.83;11.77;;;19.20;99.90;;;;;;5071479;28;20468;-47
2023/06/24 05:05:20;;;;;;;12.60;11.50;;;19.20;99.90;;;;;;5053658;28;20477;-47
2023/06/24 05:07:46;;;;;;;11.43;10.33;;;19.30;99.90;;;;;;5071579;28;20449;-47
2023/06/24 05:10:13;;;;;;;13.27;11.63;;;19.30;99.90;;;;;;5071305;28;20433;-46
2023/06/24 05:12:40;;;;;;;12.47;10.57;;;19.40;99.90;;;;;;5072042;28;20568;-47
2023/06/24 05:15:07;;;;;;;12.43;10.77;;;19.40;99.90;;;;;;5071445;28;20438;-47
2023/06/24 05:17:34;;;;;;;11.73;10.13;;;19.50;99.90;;;;;;5071571;28;20941;-47
2023/06/24 05:20:01;;;;;;;13.80;11.00;;;19.60;99.90;;;;;;5071012;28;20408;-47
2023/06/24 05:22:29;;;;;;;12.17;10.17;;;19.40;99.90;;;;;;5056950;28;20433;-48
2023/06/24 05:24:55;;;;;;;13.23;10.03;;;19.80;99.90;;;;;;5075062;28;20831;-47
2023/06/24 05:27:22;;;;;;;11.57;10.47;;;19.90;99.90;;;;;;5075173;28;20484;-47
2023/06/24 05:29:48;;;;;;;13.50;10.43;;;19.90;99.90;;;;;;5074658;28;20477;-47
2023/06/24 05:32:17;;;;;;;14.20;10.80;;;20.00;99.90;;;;;;5075107;28;20515;-47
2023/06/24 05:34:43;;;;;;;15.83;10.83;;;19.90;99.90;;;;;;5075362;28;20509;-48
2023/06/24 05:37:10;;;;;;;11.43;10.17;;;20.00;99.90;;;;;;5075160;28;20442;-46
2023/06/24 05:39:38;;;;;;;11.30;10.20;;;20.30;99.90;;;;;;5074745;28;20431;-47
2023/06/24 05:42:05;;;;;;;12.00;10.70;;;20.30;99.90;;;;;;5074791;28;20529;-47
2023/06/24 05:44:32;;;;;;;11.90;10.60;;;20.20;99.90;;;;;;5056689;28;20448;-47
2023/06/24 05:46:58;;;;;;;11.70;10.10;;;20.10;99.90;;;;;;5074905;28;20433;-47
2023/06/24 05:49:25;;;;;;;12.40;10.30;;;20.40;99.90;;;;;;5074536;28;20779;-47
2023/06/24 05:51:52;;;;;;;12.37;9.67;;;20.30;99.90;;;;;;5076372;28;20522;-47
2023/06/24 05:54:18;;;;;;;17.60;11.00;;;20.30;99.90;;;;;;5076907;28;20435;-47
2023/06/24 05:56:46;;;;;;;12.30;11.00;;;20.30;99.90;;;;;;5075613;28;20427;-47
2023/06/24 05:59:13;;;;;;;12.80;11.50;;;20.20;99.90;;;;;;5074759;28;20446;-47
2023/06/24 06:01:39;;;;;;;11.33;10.13;;;20.40;99.90;;;;;;5074786;28;20805;-47
2023/06/24 06:04:06;;;;;;;11.90;9.80;;;20.40;99.90;;;;;;5074417;28;20450;-47
2023/06/24 06:06:33;;;;;;;12.03;10.77;;;20.60;99.90;;;;;;5056474;28;20995;-47
2023/06/24 06:09:00;;;;;;;14.43;9.70;;;20.60;99.90;;;;;;5074096;28;20438;-47
2023/06/24 06:11:27;;;;;;;10.43;9.37;;;20.90;99.90;;;;;;5074546;28;20722;-47
2023/06/24 06:13:55;;;;;;;9.10;8.00;;;20.90;99.90;;;;;;5074958;28;20459;-47
2023/06/24 06:16:21;;;;;;;12.60;9.70;;;21.00;99.90;;;;;;5074182;28;20427;-48
2023/06/24 06:18:48;;;;;;;12.00;9.53;;;21.00;99.90;;;;;;5074343;28;20432;-47
2023/06/24 06:21:15;;;;;;;15.77;10.30;;;21.00;99.90;;;;;;5074554;28;20433;-47
2023/06/24 06:23:41;;;;;;;11.07;9.50;;;21.00;99.90;;;;;;5074664;28;20451;-47
2023/06/24 06:26:08;;;;;;;10.00;8.63;;;21.10;99.90;;;;;;5056790;28;20831;-46
2023/06/24 06:28:35;;;;;;;10.63;8.70;;;21.10;99.90;;;;;;5074478;28;20446;-49
2023/06/24 06:31:03;;;;;;;11.97;9.60;;;21.10;99.90;;;;;;5074245;28;20443;-48
2023/06/24 06:33:30;;;;;;;12.70;9.30;;;21.20;99.90;;;;;;5073684;28;20806;-47
2023/06/24 06:35:56;;;;;;;11.77;9.70;;;21.30;99.90;;;;;;5073830;28;20433;-46
2023/06/24 06:38:23;;;;;;;12.37;9.50;;;21.30;99.90;;;;;;5073674;28;20533;-47
2023/06/24 06:40:50;;;;;;;12.33;8.63;;;21.30;99.90;;;;;;5073747;28;20536;-47
2023/06/24 06:43:17;;;;;;;11.37;10.27;;;21.30;99.90;;;;;;5073866;28;21000;-47
2023/06/24 06:45:43;;;;;;;10.10;9.10;;;21.30;99.90;;;;;;5073603;28;21016;-47
2023/06/24 06:48:11;;;;;;;11.07;9.17;;;21.30;99.90;;;;;;5073356;28;20432;-48
2023/06/24 06:50:38;;;;;;;10.43;9.30;;;21.40;99.90;;;;;;5073388;28;20952;-47
2023/06/24 06:53:04;;;;;;;9.77;8.73;;;21.40;99.90;;;;;;5073538;28;20463;-48
2023/06/24 06:55:31;;;;;;;9.80;8.60;;;21.50;99.90;;;;;;5073362;28;20429;-48
2023/06/24 06:57:58;;;;;;;10.97;8.70;;;21.50;99.90;;;;;;5073583;28;20436;-47
2023/06/24 07:00:24;;;;;;;9.23;8.43;;;21.60;99.90;;;;;;5073155;28;21025;-47
2023/06/24 07:02:51;;;;;;;10.50;8.50;;;21.60;99.90;;;;;;5073154;28;20453;-48
2023/06/24 07:05:19;;;;;;;9.70;8.70;;;21.60;99.90;;;;;;5055111;28;20469;-48
2023/06/24 07:07:46;;;;;;;9.53;8.40;;;21.60;99.90;;;;;;5073175;28;20437;-47
2023/06/24 07:10:13;;;;;;;12.03;8.67;;;21.60;99.90;;;;;;5074884;28;20445;-46
2023/06/24 07:12:39;;;;;;;9.53;8.53;;;21.60;99.90;;;;;;5073577;28;20522;-47
2023/06/24 07:15:06;;;;;;;9.07;8.13;;;21.50;99.90;;;;;;5073130;28;20449;-47
2023/06/24 07:17:33;;;;;;;9.43;8.57;;;21.50;99.90;;;;;;5073138;28;20805;-47
2023/06/24 07:20:00;;;;;;;8.40;7.60;;;21.40;99.90;;;;;;5072536;28;20437;-47
2023/06/24 07:22:30;;;;;;;13.00;7.40;;;21.50;99.90;;;;;;5072750;28;20943;-47
2023/06/24 07:24:57;;;;;;;10.00;8.15;;;21.60;99.90;;;;;;5072561;28;20465;-47
2023/06/24 07:27:23;;;;;;;9.23;7.53;;;21.70;99.90;;;;;;5072863;28;20449;-48
2023/06/24 07:29:50;;;;;;;13.03;7.67;;;21.70;99.90;;;;;;5072588;28;20448;-46
2023/06/24 07:32:16;;;;;;;8.90;7.97;;;21.70;99.90;;;;;;5073258;28;20464;-48
2023/06/24 07:34:43;;;;;;;8.97;8.07;;;21.70;99.90;;;;;;5072753;28;20434;-47
2023/06/24 07:37:10;;;;;;;7.53;6.73;;;21.80;99.90;;;;;;5072740;28;20451;-47
2023/06/24 07:39:38;;;;;;;12.60;7.80;;;21.70;99.90;;;;;;5072281;28;20442;-48
2023/06/24 07:42:05;;;;;;;11.30;8.27;;;22.10;99.90;;;;;;5072502;28;20435;-48
2023/06/24 07:44:31;;;;;;;9.20;7.60;;;22.00;99.90;;;;;;5071992;28;20441;-48
2023/06/24 07:46:58;;;;;;;8.47;7.50;;;22.20;99.90;;;;;;5054508;28;20542;-47
2023/06/24 07:49:25;;;;;;;7.83;6.70;;;22.30;99.90;;;;;;5071982;28;20434;-47
2023/06/24 07:51:51;;;;;;;10.70;6.77;;;22.30;99.90;;;;;;5072367;28;20466;-48
2023/06/24 07:54:18;;;;;;;8.60;6.90;;;22.50;99.90;;;;;;5072527;28;20431;-48
2023/06/24 07:56:46;;;;;;;7.13;6.10;;;22.60;99.90;;;;;;5072459;28;20781;-48
2023/06/24 07:59:12;;;;;;;8.97;6.60;;;22.60;99.90;;;;;;5072025;28;20919;-48
2023/06/24 08:01:39;;;;;;;7.20;6.50;;;22.60;99.90;;;;;;5072439;28;20441;-48
2023/06/24 08:04:05;;;;;;;7.43;5.80;;;22.60;99.90;;;;;;5072276;28;20458;-48
2023/06/24 08:06:32;;;;;;;7.97;7.17;;;22.60;99.90;;;;;;5072279;28;20499;-48
2023/06/24 08:08:59;;;;;;;6.70;5.67;;;22.70;99.90;;;;;;5071478;28;20429;-48
2023/06/24 08:11:25;;;;;;;6.30;5.80;;;22.80;99.90;;;;;;5071815;28;20463;-47
2023/06/24 08:13:53;;;;;;;9.23;5.63;;;22.80;99.90;;;;;;5071878;28;20450;-48
2023/06/24 08:16:20;;;;;;;8.13;6.67;;;22.70;99.90;;;;;;5071631;28;20438;-48
2023/06/24 08:18:47;;;;;;;7.17;5.97;;;22.60;99.90;;;;;;5071319;28;20439;-49
2023/06/24 08:21:13;;;;;;;6.27;5.70;;;22.50;99.90;;;;;;5071543;28;20472;-47
2023/06/24 08:23:40;;;;;;;7.20;5.63;;;22.50;99.90;;;;;;5072188;28;21139;-48
2023/06/24 08:26:07;;;;;;;6.43;5.10;;;22.60;99.90;;;;;;5072731;28;20476;-47
2023/06/24 08:28:34;;;;;;;8.80;6.03;;;22.60;99.90;;;;;;5071637;28;20464;-48
2023/06/24 08:31:02;;;;;;;6.37;5.73;;;22.70;99.70;;;;;;5071993;28;20443;-47
2023/06/24 08:33:28;;;;;;;5.80;5.20;;;22.50;99.60;;;;;;5071707;28;20993;-47
2023/06/24 08:35:55;;;;;;;5.50;5.00;;;22.70;99.30;;;;;;5071680;28;20528;-48
2023/06/24 08:38:22;;;;;;;11.37;5.90;;;22.70;99.60;;;;;;5071481;28;20450;-48
2023/06/24 08:40:50;;;;;;;14.17;6.90;;;22.70;99.60;;;;;;5071922;28;20437;-48
2023/06/24 08:43:17;;;;;;;10.77;6.27;;;22.70;99.20;;;;;;5071689;28;20450;-47
2023/06/24 08:45:44;;;;;;;6.13;5.53;;;22.70;99.30;;;;;;5071380;28;20578;-48
2023/06/24 08:48:14;;;;;;;6.73;4.80;;;22.70;99.10;;;;;;5071606;28;20436;-48
2023/06/24 08:50:46;;;;;;;7.30;5.70;;;22.70;98.40;;;;;;5053591;28;20456;-47
2023/06/24 08:53:13;;;;;;;6.90;5.40;;;22.60;98.50;;;;;;5071513;28;20451;-47
2023/06/24 08:55:43;;;;;;;5.87;5.27;;;22.70;98.50;;;;;;5074343;28;20437;-47
2023/06/24 08:58:10;;;;;;;6.40;5.70;;;22.60;98.70;;;;;;5057014;28;20460;-49
2023/06/24 09:00:37;;;;;;;8.10;5.53;;;22.50;98.70;;;;;;5057579;28;20465;-47
2023/06/24 09:03:03;;;;;;;5.63;5.10;;;22.50;98.80;;;;;;5075537;28;20509;-47
2023/06/24 09:05:31;;;;;;;5.50;5.00;;;22.60;98.20;;;;;;5075454;28;20427;-48
2023/06/24 09:07:58;;;;;;;5.97;5.37;;;22.60;97.90;;;;;;5075718;28;20438;-47
2023/06/24 09:10:32;;;;;;;6.47;5.83;;;22.50;98.00;;;;;;5075117;28;20438;-47
2023/06/24 09:12:59;;;;;;;6.80;5.97;;;22.60;98.30;;;;;;5075346;28;20454;-48
2023/06/24 09:15:26;;;;;;;8.67;5.37;;;22.60;98.40;;;;;;5075527;28;20474;-48
2023/06/24 09:17:52;;;;;;;6.17;5.30;;;22.50;98.30;;;;;;5075412;28;20427;-49
2023/06/24 09:20:22;;;;;;;5.77;5.27;;;22.70;98.00;;;;;;5074817;28;20794;-47
2023/06/24 09:22:50;;;;;;;5.90;5.40;;;22.80;97.70;;;;;;5074976;28;20997;-48
2023/06/24 09:25:18;;;;;;;6.10;5.10;;;22.70;97.00;;;;;;5075346;28;20441;-47
2023/06/24 09:27:48;;;;;;;5.57;5.07;;;22.80;97.10;;;;;;5075008;28;20479;-48
2023/06/24 09:30:20;;;;;;;8.03;5.53;;;23.30;97.40;;;;;;5075021;28;20820;-47
2023/06/24 09:32:46;;;;;;;7.57;6.53;;;22.90;97.30;;;;;;5074746;28;20474;-48
2023/06/24 09:35:13;;;;;;;6.83;5.47;;;22.90;97.30;;;;;;5075183;28;20452;-48
2023/06/24 09:37:40;;;;;;;5.63;5.13;;;22.90;97.10;;;;;;5057043;28;20456;-48
2023/06/24 09:40:10;;;;;;;6.60;5.87;;;22.90;97.30;;;;;;5074464;28;20431;-48
2023/06/24 09:42:36;;;;;;;5.40;4.90;;;22.90;97.00;;;;;;5058041;28;20988;-48
2023/06/24 09:45:06;;;;;;;8.93;6.20;;;22.90;96.60;;;;;;5074579;28;20492;-47
2023/06/24 09:47:33;;;;;;;6.83;5.40;;;22.90;96.10;;;;;;5074832;28;20817;-47
2023/06/24 09:49:59;;;;;;;5.50;5.00;;;23.20;96.20;;;;;;5074282;28;20431;-47
2023/06/24 09:52:26;;;;;;;6.43;4.63;;;22.50;95.90;;;;;;5074316;28;20560;-47
2023/06/24 09:54:55;;;;;;;6.37;5.80;;;22.80;96.10;;;;;;5056869;28;20453;-48
2023/06/24 09:57:29;;;;;;;6.20;5.60;;;22.70;96.10;;;;;;5074494;28;20778;-48
2023/06/24 09:59:56;;;;;;;7.70;7.00;;;22.80;96.10;;;;;;5074199;28;20434;-48
2023/06/24 10:02:23;;;;;;;5.70;5.20;;;22.70;96.10;;;;;;5074559;28;20826;-47
2023/06/24 10:04:51;;;;;;;5.80;5.30;;;22.80;96.10;;;;;;5056203;28;20450;-46
2023/06/24 10:07:18;;;;;;;5.90;5.40;;;22.70;96.20;;;;;;5073850;28;20500;-48
2023/06/24 10:09:44;;;;;;;9.00;4.57;;;22.70;95.70;;;;;;5073501;28;20900;-48
2023/06/24 10:12:11;;;;;;;5.30;4.80;;;22.70;95.50;;;;;;5074050;28;20983;-47
2023/06/24 10:14:39;;;;;;;10.13;5.10;;;22.70;95.00;;;;;;5073993;28;20435;-48
2023/06/24 10:17:06;;;;;;;5.43;4.37;;;22.60;95.10;;;;;;5056119;28;21008;-47
2023/06/24 10:19:39;;;;;;;6.20;4.83;;;22.70;94.90;;;;;;5074157;28;20458;-48
2023/06/24 10:22:09;;;;;;;6.63;4.20;;;22.80;95.00;;;;;;5074386;28;20530;-48
2023/06/24 10:24:39;;;;;;;7.43;4.40;;;22.40;94.50;;;;;;5073750;28;20431;-47
2023/06/24 10:27:08;;;;;;;4.63;4.23;;;23.30;94.90;;;;;;5055419;28;20470;-48
2023/06/24 10:29:36;;;;;;;4.93;3.90;;;22.70;94.10;;;;;;5073718;28;20431;-49
2023/06/24 10:32:08;;;;;;;7.03;3.90;;;22.50;94.10;;;;;;5073604;28;20435;-48
2023/06/24 10:34:40;;;;;;;4.60;4.20;;;22.70;94.20;;;;;;5073521;28;20465;-47
2023/06/24 10:37:10;;;;;;;4.73;4.27;;;22.60;94.40;;;;;;5073539;28;20423;-47
2023/06/24 10:39:56;;;;;;;5.80;4.77;;;22.60;95.00;;;;;;5073059;28;20444;-48
2023/06/24 10:42:38;;;;;;;8.03;4.57;;;22.60;95.10;;;;;;5073403;28;20489;-49
2023/06/24 10:45:19;;;;;;;5.87;4.90;;;22.60;95.00;;;;;;5073362;28;20439;-48
2023/06/24 10:47:49;;;;;;;5.67;4.00;;;22.60;95.20;;;;;;5073408;28;20490;-48
2023/06/24 10:50:18;;;;;;;5.13;4.50;;;22.70;95.30;;;;;;5072759;28;20439;-47
2023/06/24 10:52:47;;;;;;;4.63;4.17;;;22.70;95.40;;;;;;5073413;28;20518;-47
2023/06/24 10:55:16;;;;;;;4.53;4.13;;;22.70;95.50;;;;;;5073211;28;20983;-48
2023/06/24 10:57:43;;;;;;;5.73;5.20;;;22.80;95.20;;;;;;5073396;28;20431;-48
2023/06/24 11:00:11;;;;;;;6.67;5.07;;;22.80;95.40;;;;;;5074383;28;20530;-48
2023/06/24 11:02:38;;;;;;;6.43;5.50;;;22.80;95.50;;;;;;5055384;28;20469;-48
2023/06/24 11:05:06;;;;;;;7.50;5.13;;;22.90;95.30;;;;;;5073405;28;20753;-47
2023/06/24 11:07:35;;;;;;;5.73;4.93;;;22.90;95.20;;;;;;5072868;28;20473;-48
2023/06/24 11:10:06;;;;;;;5.53;4.57;;;22.80;95.10;;;;;;5072895;28;20431;-48
2023/06/24 11:12:34;;;;;;;7.57;5.40;;;22.80;95.30;;;;;;5073054;28;20495;-47
2023/06/24 11:15:02;;;;;;;6.00;4.90;;;22.80;95.40;;;;;;5073219;28;20790;-48
2023/06/24 11:17:29;;;;;;;7.87;5.50;;;22.80;95.50;;;;;;5072485;28;20521;-48
2023/06/24 11:19:56;;;;;;;10.00;6.20;;;22.90;95.60;;;;;;5071541;28;20488;-48
2023/06/24 11:22:25;;;;;;;8.73;4.80;;;23.00;95.80;;;;;;5054558;28;20613;-51
2023/06/24 11:24:53;;;;;;;8.43;4.90;;;23.00;95.60;;;;;;5072628;28;20441;-47
2023/06/24 11:27:26;;;;;;;6.03;4.90;;;23.00;95.30;;;;;;5072744;28;20479;-49
2023/06/24 11:29:53;;;;;;;5.67;5.17;;;23.00;95.30;;;;;;5071996;28;20492;-47
2023/06/24 11:32:20;;;;;;;5.67;5.07;;;23.00;95.00;;;;;;5072304;28;20835;-48
2023/06/24 11:34:48;;;;;;;5.53;4.97;;;23.00;94.90;;;;;;5072491;28;20447;-48
2023/06/24 11:37:16;;;;;;;5.13;4.63;;;23.00;95.00;;;;;;5072473;28;20921;-48
2023/06/24 11:39:44;;;;;;;5.30;4.80;;;22.80;94.90;;;;;;5072194;28;20932;-48
2023/06/24 11:42:12;;;;;;;9.07;4.83;;;22.90;94.80;;;;;;5072276;28;20451;-49
2023/06/24 11:44:43;;;;;;;6.03;5.20;;;22.90;94.40;;;;;;5072155;28;20452;-48
2023/06/24 11:47:11;;;;;;;5.90;5.10;;;22.90;94.30;;;;;;5054338;28;20466;-48
2023/06/24 11:49:51;;;;;;;5.27;4.77;;;22.90;94.40;;;;;;5071861;28;20462;-48
2023/06/24 11:52:18;;;;;;;7.00;4.63;;;22.90;93.90;;;;;;5072054;28;20488;-47
2023/06/24 11:54:47;;;;;;;5.10;4.60;;;23.10;94.10;;;;;;5071889;28;20504;-48
2023/06/24 11:57:13;;;;;;;5.77;4.60;;;23.00;93.80;;;;;;5072324;28;20953;-47
2023/06/24 11:59:40;;;;;;;6.93;4.87;;;23.00;93.70;;;;;;5053893;28;20547;-48
2023/06/24 12:02:06;;;;;;;6.43;4.67;;;23.10;93.60;;;;;;5072339;28;20817;-48
2023/06/24 12:04:34;;;;;;;6.00;5.07;;;23.10;93.40;;;;;;5054380;28;20547;-48
2023/06/24 12:07:01;;;;;;;5.20;4.67;;;23.10;93.40;;;;;;5071880;28;20528;-48
2023/06/24 12:09:28;;;;;;;6.90;5.63;;;23.20;93.50;;;;;;5071587;28;20438;-49
2023/06/24 12:11:56;;;;;;;6.13;4.97;;;23.20;93.50;;;;;;5071699;28;20497;-48
2023/06/24 12:14:22;;;;;;;5.20;4.70;;;23.30;92.90;;;;;;5072798;28;20423;-48
2023/06/24 12:16:49;;;;;;;5.17;4.67;;;23.10;92.50;;;;;;5073813;28;20523;-48
2023/06/24 12:19:16;;;;;;;6.70;5.13;;;23.30;92.70;;;;;;5071615;28;20811;-47
2023/06/24 12:21:42;;;;;;;4.63;4.23;;;23.30;92.50;;;;;;5071489;28;20436;-48
2023/06/24 12:24:09;;;;;;;5.20;4.70;;;23.30;92.40;;;;;;5071808;28;20462;-48
2023/06/24 12:26:37;;;;;;;8.10;5.40;;;23.30;92.50;;;;;;5071454;28;20445;-48
2023/06/24 12:29:05;;;;;;;4.47;4.07;;;23.30;92.20;;;;;;5070782;28;20519;-48
2023/06/24 12:31:32;;;;;;;6.57;4.17;;;23.20;92.30;;;;;;5071547;28;20437;-48
2023/06/24 12:33:58;;;;;;;5.63;5.13;;;23.30;92.20;;;;;;5071248;28;20488;-48
2023/06/24 12:36:25;;;;;;;9.70;5.80;;;23.30;92.10;;;;;;5071510;28;20431;-48
2023/06/24 12:38:51;;;;;;;7.40;4.57;;;23.40;92.30;;;;;;5071153;28;20424;-48
2023/06/24 12:41:18;;;;;;;4.33;3.93;;;23.40;92.30;;;;;;5071728;28;20441;-48